Time;durP1;ratioP1;P1;durP2;ratioP2;P2;SDS_P1;SDS_P2;PMS_P1;PMS_P2;Temp;Humidity;BMP_temperature;BMP_pressure;BME280_temperature;BME280_humidity;BME280_pressure;Samples;Min_cycle;Max_cycle;Signal;HPM_P1;HPM_P2
2022/07/05 00:01:29;;;;;;;7.25;1.50;;;13.10;99.90;;;;;;5069744;28;20044;-72
2022/07/05 00:03:56;;;;;;;5.90;2.08;;;13.10;99.90;;;;;;5055008;28;20024;-73
2022/07/05 00:06:24;;;;;;;11.88;2.25;;;13.10;99.90;;;;;;5071222;28;20028;-72
2022/07/05 00:08:52;;;;;;;12.57;1.58;;;13.20;99.90;;;;;;5073736;28;20093;-70
2022/07/05 00:11:20;;;;;;;7.75;1.58;;;13.20;99.90;;;;;;5073276;28;20047;-70
2022/07/05 00:13:47;;;;;;;13.10;1.83;;;13.20;99.90;;;;;;5064243;28;20027;-72
2022/07/05 00:16:15;;;;;;;9.75;1.75;;;13.20;99.90;;;;;;5072629;28;20090;-70
2022/07/05 00:18:43;;;;;;;10.68;2.20;;;13.30;99.90;;;;;;5074267;28;20033;-70
2022/07/05 00:21:11;;;;;;;11.40;2.03;;;13.30;99.90;;;;;;5072625;28;20013;-73
2022/07/05 00:23:38;;;;;;;13.13;3.10;;;13.40;99.90;;;;;;5072065;28;20351;-71
2022/07/05 00:26:06;;;;;;;15.25;2.83;;;13.40;99.90;;;;;;5073462;28;20121;-73
2022/07/05 00:28:34;;;;;;;12.15;2.22;;;13.40;99.90;;;;;;5072802;28;20032;-73
2022/07/05 00:31:02;;;;;;;13.15;3.00;;;13.40;99.90;;;;;;5072847;28;20397;-73
2022/07/05 00:33:29;;;;;;;15.25;3.42;;;13.50;99.90;;;;;;5072491;28;20027;-74
2022/07/05 00:35:57;;;;;;;17.35;2.30;;;13.50;99.90;;;;;;5073731;28;20501;-71
2022/07/05 00:38:25;;;;;;;15.25;3.33;;;13.50;99.90;;;;;;5071582;28;20024;-72
2022/07/05 00:40:52;;;;;;;7.70;1.85;;;13.60;99.90;;;;;;5072843;28;20020;-70
2022/07/05 00:43:20;;;;;;;15.65;2.92;;;13.60;99.90;;;;;;5073449;28;20028;-73
2022/07/05 00:45:48;;;;;;;14.98;2.55;;;13.60;99.90;;;;;;5071120;28;20123;-72
2022/07/05 00:48:15;;;;;;;7.25;1.75;;;13.50;99.90;;;;;;5071996;28;20024;-71
2022/07/05 00:50:43;;;;;;;18.45;2.55;;;13.60;99.90;;;;;;5071161;28;20136;-71
2022/07/05 00:53:11;;;;;;;13.63;2.03;;;13.60;99.90;;;;;;5073578;28;20459;-70
2022/07/05 00:55:40;;;;;;;12.63;2.33;;;13.60;99.90;;;;;;5071795;28;20016;-70
2022/07/05 00:58:08;;;;;;;11.93;2.55;;;13.60;99.90;;;;;;5071369;28;20459;-74
2022/07/05 01:00:35;;;;;;;10.00;1.67;;;13.50;99.90;;;;;;5070901;28;20067;-73
2022/07/05 01:03:04;;;;;;;13.68;3.08;;;13.50;99.90;;;;;;5071836;28;20551;-73
2022/07/05 01:05:34;;;;;;;9.60;2.17;;;13.50;99.90;;;;;;5072917;28;20382;-75
2022/07/05 01:08:02;;;;;;;23.50;3.88;;;13.50;99.90;;;;;;5073329;28;20479;-73
2022/07/05 01:10:30;;;;;;;11.77;2.03;;;13.60;99.90;;;;;;5071156;28;20032;-73
2022/07/05 01:12:58;;;;;;;10.98;1.73;;;13.50;99.90;;;;;;5069261;28;20027;-71
2022/07/05 01:15:27;;;;;;;5.95;1.38;;;13.60;99.90;;;;;;5071900;28;20466;-72
2022/07/05 01:17:54;;;;;;;12.57;2.55;;;13.60;99.90;;;;;;5070848;28;20024;-69
2022/07/05 01:20:22;;;;;;;7.28;2.05;;;13.60;99.90;;;;;;5072006;28;20020;-73
2022/07/05 01:22:59;;;;;;;8.65;2.45;;;13.60;99.90;;;;;;5068185;28;20386;-72
2022/07/05 01:25:28;;;;;;;9.30;1.98;;;13.70;99.90;;;;;;5073434;28;20095;-70
2022/07/05 01:27:58;;;;;;;16.65;2.33;;;13.70;99.90;;;;;;5068995;28;20024;-72
2022/07/05 01:30:26;;;;;;;9.57;2.05;;;13.70;99.90;;;;;;5068680;28;20071;-69
2022/07/05 01:32:54;;;;;;;5.55;1.48;;;13.70;99.90;;;;;;5070914;28;20021;-73
2022/07/05 01:35:23;;;;;;;10.07;2.05;;;13.80;99.90;;;;;;5071708;28;20028;-69
2022/07/05 01:37:51;;;;;;;12.38;1.90;;;13.70;99.90;;;;;;5072284;28;20422;-70
2022/07/05 01:40:20;;;;;;;11.93;2.10;;;13.70;99.90;;;;;;5072126;28;20038;-71
2022/07/05 01:42:48;;;;;;;6.75;1.80;;;13.70;99.90;;;;;;5063790;28;20025;-70
2022/07/05 01:45:38;;;;;;;9.02;2.45;;;13.60;99.90;;;;;;5066726;28;20028;-72
2022/07/05 01:48:07;;;;;;;6.35;1.73;;;13.70;99.90;;;;;;5070670;28;20520;-73
2022/07/05 01:50:43;;;;;;;11.82;2.17;;;13.70;99.90;;;;;;5070997;28;20040;-70
2022/07/05 01:53:20;;;;;;;;;;;13.70;99.90;;;;;;5070624;28;20066;-69
2022/07/05 01:55:47;;;;;;;;;;;13.70;99.90;;;;;;5068779;28;20313;-69
2022/07/05 01:58:15;;;;;;;8.15;2.38;;;13.70;99.90;;;;;;5070555;28;19904;-73
2022/07/05 02:00:54;;;;;;;12.27;2.42;;;13.60;99.90;;;;;;5068753;28;20036;-69
2022/07/05 02:03:22;;;;;;;13.88;2.92;;;13.70;99.90;;;;;;5071406;28;20024;-71
2022/07/05 02:05:50;;;;;;;22.75;2.47;;;13.70;99.90;;;;;;5071579;28;20024;-69
2022/07/05 02:08:18;;;;;;;11.02;1.83;;;13.70;99.90;;;;;;5072154;28;20331;-69
2022/07/05 02:10:47;;;;;;;16.60;1.95;;;13.80;99.90;;;;;;5069365;28;20067;-70
2022/07/05 02:13:15;;;;;;;6.20;1.98;;;13.80;99.90;;;;;;5068770;28;20008;-69
2022/07/05 02:15:43;;;;;;;17.58;2.38;;;13.70;99.90;;;;;;5070501;28;20020;-69
2022/07/05 02:18:10;;;;;;;7.88;1.98;;;13.70;99.90;;;;;;5069084;28;20040;-72
2022/07/05 02:20:40;;;;;;;14.23;2.92;;;13.70;99.90;;;;;;5070812;28;20401;-70
2022/07/05 02:23:08;;;;;;;13.00;1.98;;;13.70;99.90;;;;;;5066108;28;20013;-69
2022/07/05 02:25:36;;;;;;;15.18;3.70;;;13.70;99.90;;;;;;5072059;28;20466;-69
2022/07/05 02:28:03;;;;;;;18.30;2.33;;;13.60;99.90;;;;;;5066759;28;20072;-69
2022/07/05 02:30:31;;;;;;;8.75;2.55;;;13.60;99.90;;;;;;5070341;28;20033;-69
2022/07/05 02:32:59;;;;;;;9.00;2.17;;;13.60;99.90;;;;;;5067589;28;20039;-68
2022/07/05 02:35:27;;;;;;;8.93;2.20;;;13.60;99.90;;;;;;5068628;28;20078;-67
2022/07/05 02:37:54;;;;;;;10.57;2.60;;;13.60;99.90;;;;;;5071370;28;20013;-69
2022/07/05 02:40:22;;;;;;;12.85;2.58;;;13.60;99.90;;;;;;5071526;28;20052;-71
2022/07/05 02:42:50;;;;;;;7.80;2.40;;;13.60;99.90;;;;;;5071782;28;20016;-71
2022/07/05 02:45:18;;;;;;;22.08;3.45;;;13.60;99.90;;;;;;5065708;28;20108;-71
2022/07/05 02:47:45;;;;;;;13.98;2.55;;;13.60;99.90;;;;;;5066900;28;20017;-71
2022/07/05 02:50:13;;;;;;;7.85;2.20;;;13.60;99.90;;;;;;5068529;28;20380;-72
2022/07/05 02:52:41;;;;;;;14.27;2.13;;;13.60;99.90;;;;;;5067663;28;20031;-71
2022/07/05 02:55:09;;;;;;;7.85;1.70;;;13.50;99.90;;;;;;5068800;28;20020;-70
2022/07/05 02:57:39;;;;;;;12.60;2.50;;;13.50;99.90;;;;;;5066873;28;20029;-71
2022/07/05 03:00:08;;;;;;;7.22;1.52;;;13.50;99.90;;;;;;5070485;28;20049;-72
2022/07/05 03:02:36;;;;;;;6.20;1.90;;;13.50;99.90;;;;;;5070041;28;20051;-72
2022/07/05 03:05:04;;;;;;;9.40;1.88;;;13.40;99.90;;;;;;5071640;28;20517;-71
2022/07/05 03:07:32;;;;;;;8.35;1.63;;;13.50;99.90;;;;;;5071542;28;20025;-71
2022/07/05 03:09:59;;;;;;;12.32;1.60;;;13.40;99.90;;;;;;5069588;28;20068;-71
2022/07/05 03:12:27;;;;;;;8.73;1.45;;;13.40;99.90;;;;;;5071788;28;20043;-71
2022/07/05 03:14:55;;;;;;;6.22;1.27;;;13.30;99.90;;;;;;5069223;28;20048;-71
2022/07/05 03:17:23;;;;;;;7.75;1.98;;;13.30;99.90;;;;;;5074700;28;20367;-72
2022/07/05 03:19:53;;;;;;;12.30;2.05;;;13.30;99.90;;;;;;5073657;28;20024;-72
2022/07/05 03:22:21;;;;;;;12.80;1.98;;;13.30;99.90;;;;;;5075461;28;20025;-72
2022/07/05 03:24:49;;;;;;;15.95;1.83;;;13.30;99.90;;;;;;5075383;28;20382;-71
2022/07/05 03:27:16;;;;;;;13.20;2.63;;;13.30;99.90;;;;;;5073352;28;20364;-72
2022/07/05 03:29:44;;;;;;;14.77;1.77;;;13.30;99.90;;;;;;5071375;28;20111;-72
2022/07/05 03:32:12;;;;;;;10.43;1.73;;;13.30;99.90;;;;;;5056001;28;20387;-71
2022/07/05 03:34:40;;;;;;;5.68;1.52;;;13.30;99.90;;;;;;5073075;28;20437;-71
2022/07/05 03:37:07;;;;;;;9.20;1.65;;;13.30;99.90;;;;;;5072313;28;20394;-72
2022/07/05 03:39:35;;;;;;;12.63;1.42;;;13.20;99.90;;;;;;5074834;28;20020;-71
2022/07/05 03:42:03;;;;;;;6.63;1.65;;;13.20;99.90;;;;;;5066879;28;20033;-72
2022/07/05 03:44:32;;;;;;;10.05;2.05;;;13.20;99.90;;;;;;5075614;28;20035;-71
2022/07/05 03:47:00;;;;;;;10.73;1.77;;;13.20;99.90;;;;;;5075044;28;20020;-68
2022/07/05 03:49:28;;;;;;;9.18;2.47;;;13.20;99.90;;;;;;5071148;28;20493;-72
2022/07/05 03:51:56;;;;;;;10.57;2.10;;;13.20;99.90;;;;;;5074237;28;20028;-70
2022/07/05 03:54:24;;;;;;;8.43;2.17;;;13.10;99.90;;;;;;5073934;28;20048;-72
2022/07/05 03:56:51;;;;;;;5.63;1.35;;;13.10;99.90;;;;;;5075486;28;20024;-71
2022/07/05 03:59:19;;;;;;;14.00;2.20;;;13.20;99.90;;;;;;5072722;28;20021;-71
2022/07/05 04:01:47;;;;;;;8.07;1.55;;;13.30;99.90;;;;;;5073123;28;20047;-72
2022/07/05 04:04:15;;;;;;;12.75;2.08;;;13.20;99.90;;;;;;5069446;28;20024;-71
2022/07/05 04:06:43;;;;;;;12.77;1.85;;;13.10;99.90;;;;;;5073880;28;20066;-72
2022/07/05 04:09:10;;;;;;;8.55;2.08;;;13.10;99.90;;;;;;5071526;28;20509;-71
2022/07/05 04:11:38;;;;;;;8.30;1.70;;;13.10;99.90;;;;;;5074553;28;20038;-72
2022/07/05 04:14:06;;;;;;;8.45;1.83;;;13.10;99.90;;;;;;5074761;28;20111;-71
2022/07/05 04:16:34;;;;;;;8.25;1.55;;;13.10;99.90;;;;;;5072604;28;20012;-72
2022/07/05 04:19:01;;;;;;;14.48;2.10;;;13.10;99.90;;;;;;5062830;28;20036;-71
2022/07/05 04:21:29;;;;;;;13.18;2.15;;;13.10;99.90;;;;;;5055086;28;20044;-74
2022/07/05 04:23:57;;;;;;;5.75;1.40;;;13.10;99.90;;;;;;5054998;28;20032;-71
2022/07/05 04:26:25;;;;;;;12.93;2.45;;;13.10;99.90;;;;;;5055098;28;20018;-70
2022/07/05 04:28:52;;;;;;;8.75;1.65;;;13.10;99.90;;;;;;5037352;28;20391;-70
2022/07/05 04:31:20;;;;;;;11.55;1.70;;;13.10;99.90;;;;;;5054736;28;20562;-72
2022/07/05 04:33:48;;;;;;;11.82;1.88;;;13.10;99.90;;;;;;5055265;28;20467;-83
2022/07/05 04:36:15;;;;;;;10.43;1.70;;;13.10;99.90;;;;;;5055051;28;20468;-75
2022/07/05 04:38:43;;;;;;;10.70;1.35;;;13.10;99.90;;;;;;5055036;28;20029;-70
2022/07/05 04:41:11;;;;;;;16.55;2.92;;;13.10;99.90;;;;;;5055098;28;20082;-69
2022/07/05 04:43:38;;;;;;;8.80;1.55;;;13.10;99.90;;;;;;5055046;28;20040;-73
2022/07/05 04:46:06;;;;;;;9.40;2.15;;;13.10;99.90;;;;;;5055158;28;20107;-72
2022/07/05 04:48:34;;;;;;;9.48;2.00;;;13.20;99.90;;;;;;5054648;28;20102;-68
2022/07/05 04:51:01;;;;;;;9.65;2.13;;;13.10;99.90;;;;;;5060674;28;20028;-71
2022/07/05 04:53:29;;;;;;;12.40;3.22;;;13.10;99.90;;;;;;5075039;28;20103;-73
2022/07/05 04:55:57;;;;;;;5.20;1.60;;;13.20;99.90;;;;;;5074809;28;20022;-76
2022/07/05 04:58:25;;;;;;;17.92;2.35;;;13.20;99.90;;;;;;5057297;28;20027;-70
2022/07/05 05:00:52;;;;;;;9.43;2.22;;;13.20;99.90;;;;;;5074372;28;20150;-73
2022/07/05 05:03:20;;;;;;;13.02;1.70;;;13.20;99.90;;;;;;5074628;28;20076;-71
2022/07/05 05:05:48;;;;;;;9.43;1.55;;;13.20;99.90;;;;;;5074556;28;20025;-70
2022/07/05 05:08:16;;;;;;;13.10;2.90;;;13.20;99.90;;;;;;5074548;28;20055;-72
2022/07/05 05:10:43;;;;;;;14.13;2.25;;;13.20;99.90;;;;;;5074345;28;20029;-71
2022/07/05 05:13:11;;;;;;;13.30;3.28;;;13.20;99.90;;;;;;5074274;28;20017;-71
2022/07/05 05:15:39;;;;;;;11.20;2.03;;;13.20;99.90;;;;;;5074346;28;20089;-70
2022/07/05 05:18:07;;;;;;;11.55;2.63;;;13.20;99.90;;;;;;5059387;28;20021;-70
2022/07/05 05:20:34;;;;;;;13.68;2.70;;;13.20;99.90;;;;;;5055093;28;20024;-73
2022/07/05 05:23:02;;;;;;;4.50;1.23;;;13.20;99.90;;;;;;5054059;28;20096;-72
2022/07/05 05:25:30;;;;;;;11.80;1.98;;;13.20;99.90;;;;;;5053984;28;20090;-73
2022/07/05 05:27:58;;;;;;;13.43;2.15;;;13.20;99.90;;;;;;5053691;28;20044;-72
2022/07/05 05:30:25;;;;;;;13.77;2.13;;;13.20;99.90;;;;;;5053770;28;20029;-71
2022/07/05 05:32:53;;;;;;;6.55;1.92;;;13.20;99.90;;;;;;5064725;28;20044;-72
2022/07/05 05:35:23;;;;;;;8.30;1.95;;;13.20;99.90;;;;;;5071906;28;20044;-72
2022/07/05 05:37:55;;;;;;;10.38;2.08;;;13.20;99.90;;;;;;5072275;28;20016;-72
2022/07/05 05:40:25;;;;;;;10.35;2.15;;;13.20;99.90;;;;;;5068714;28;20024;-72
2022/07/05 05:42:55;;;;;;;17.60;2.65;;;13.10;99.90;;;;;;5071050;28;20024;-73
2022/07/05 05:45:23;;;;;;;10.65;1.70;;;13.20;99.90;;;;;;5070048;28;20031;-71
2022/07/05 05:47:56;;;;;;;12.93;2.50;;;13.10;99.90;;;;;;5071682;28;20031;-71
2022/07/05 05:50:27;;;;;;;7.15;2.03;;;13.20;99.90;;;;;;5068870;28;20390;-71
2022/07/05 05:52:55;;;;;;;11.90;1.60;;;13.20;99.90;;;;;;5070563;28;20020;-72
2022/07/05 05:55:24;;;;;;;10.45;1.75;;;13.20;99.90;;;;;;5071339;28;20039;-72
2022/07/05 05:57:53;;;;;;;4.47;1.40;;;13.20;99.90;;;;;;5071018;28;20040;-71
2022/07/05 06:00:22;;;;;;;10.70;1.67;;;13.20;99.90;;;;;;5072321;28;20074;-72
2022/07/05 06:02:51;;;;;;;11.68;1.75;;;13.20;99.90;;;;;;5068224;28;20025;-73
2022/07/05 06:05:19;;;;;;;13.05;2.35;;;13.20;99.90;;;;;;5052348;28;20482;-70
2022/07/05 06:07:48;;;;;;;9.32;2.30;;;13.20;99.90;;;;;;5068381;28;20027;-72
2022/07/05 06:10:24;;;;;;;13.48;2.33;;;13.30;99.90;;;;;;5072040;28;20099;-71
2022/07/05 06:12:54;;;;;;;15.25;2.00;;;13.30;99.90;;;;;;5069553;28;20025;-70
2022/07/05 06:15:22;;;;;;;11.38;1.40;;;13.30;99.90;;;;;;5069881;28;20478;-70
2022/07/05 06:17:50;;;;;;;7.07;1.42;;;13.30;99.90;;;;;;5068021;28;20032;-70
2022/07/05 06:20:22;;;;;;;11.80;1.95;;;13.40;99.90;;;;;;5070618;28;20111;-71
2022/07/05 06:22:52;;;;;;;12.63;2.55;;;13.40;99.90;;;;;;5070102;28;20123;-70
2022/07/05 06:25:20;;;;;;;11.07;2.00;;;13.40;99.90;;;;;;5071571;28;20042;-70
2022/07/05 06:27:52;;;;;;;5.90;1.92;;;13.40;99.90;;;;;;5071363;28;20021;-71
2022/07/05 06:30:23;;;;;;;8.75;2.13;;;13.50;99.90;;;;;;5070115;28;20070;-73
2022/07/05 06:32:52;;;;;;;10.95;1.60;;;13.50;99.90;;;;;;5068973;28;20039;-73
2022/07/05 06:35:20;;;;;;;6.95;1.65;;;13.50;99.90;;;;;;5071145;28;20024;-73
2022/07/05 06:37:52;;;;;;;9.88;2.35;;;13.40;99.90;;;;;;5061325;28;20087;-72
2022/07/05 06:40:23;;;;;;;6.57;1.40;;;13.40;99.90;;;;;;5069199;28;20047;-71
2022/07/05 06:42:55;;;;;;;10.15;1.58;;;13.30;99.90;;;;;;5071099;28;20029;-72
2022/07/05 06:45:23;;;;;;;12.50;1.73;;;13.30;99.90;;;;;;5070680;28;20012;-74
2022/07/05 06:48:06;;;;;;;11.52;2.28;;;13.20;99.90;;;;;;5069200;28;20023;-70
2022/07/05 06:50:36;;;;;;;12.38;1.63;;;13.20;99.90;;;;;;5067727;28;20063;-73
2022/07/05 06:53:06;;;;;;;6.70;0.88;;;13.10;99.90;;;;;;5071311;28;20498;-72
2022/07/05 06:55:34;;;;;;;8.35;1.92;;;13.10;99.90;;;;;;5071030;28;20052;-71
2022/07/05 06:58:04;;;;;;;6.22;1.73;;;13.10;99.90;;;;;;5068996;28;20475;-70
2022/07/05 07:00:32;;;;;;;5.57;1.23;;;13.00;99.90;;;;;;5069189;28;20117;-71
2022/07/05 07:03:00;;;;;;;9.27;1.55;;;12.90;99.90;;;;;;5068497;28;20052;-71
2022/07/05 07:05:28;;;;;;;6.38;1.42;;;12.90;99.90;;;;;;5052059;28;20445;-71
2022/07/05 07:10:41;;;;;;;8.70;1.50;;;12.80;99.90;;;;;;5071317;28;20505;-70
2022/07/05 07:13:09;;;;;;;8.02;1.95;;;12.80;99.90;;;;;;5064222;28;20075;-71
2022/07/05 07:15:40;;;;;;;12.38;1.63;;;12.80;99.90;;;;;;5062832;28;20020;-70
2022/07/05 07:18:08;;;;;;;15.88;2.85;;;12.80;99.90;;;;;;5070169;28;20096;-70
2022/07/05 07:20:36;;;;;;;9.30;1.60;;;12.80;99.90;;;;;;5064560;28;20016;-72
2022/07/05 07:23:03;;;;;;;9.75;2.28;;;12.70;99.90;;;;;;5068957;28;20039;-70
2022/07/05 07:25:31;;;;;;;7.32;1.70;;;12.70;99.90;;;;;;5059915;28;20028;-72
2022/07/05 07:27:59;;;;;;;14.82;2.83;;;12.70;99.90;;;;;;5062922;28;20055;-73
2022/07/05 07:30:29;;;;;;;13.07;1.95;;;12.60;99.90;;;;;;5071598;28;20080;-72
2022/07/05 07:32:57;;;;;;;10.07;2.00;;;12.60;99.90;;;;;;5067953;28;20398;-70
2022/07/05 07:35:24;;;;;;;10.88;1.75;;;12.60;99.90;;;;;;5068868;28;20025;-71
2022/07/05 07:37:52;;;;;;;8.75;2.25;;;12.60;99.90;;;;;;5070094;28;20017;-72
2022/07/05 07:40:20;;;;;;;13.63;3.30;;;12.60;99.90;;;;;;5068971;28;20029;-71
2022/07/05 07:42:47;;;;;;;10.40;2.50;;;12.50;99.90;;;;;;5070685;28;20421;-72
2022/07/05 07:45:15;;;;;;;11.48;2.63;;;12.50;99.90;;;;;;5053220;28;20103;-70
2022/07/05 07:47:44;;;;;;;13.23;2.35;;;12.50;99.90;;;;;;5068975;28;20052;-70
2022/07/05 07:50:12;;;;;;;9.15;2.38;;;12.50;99.90;;;;;;5067709;28;20017;-72
2022/07/05 07:52:40;;;;;;;13.65;2.25;;;12.50;99.90;;;;;;5070091;28;20016;-71
2022/07/05 07:55:08;;;;;;;9.15;2.20;;;12.50;99.90;;;;;;5063246;28;20020;-71
2022/07/05 07:57:36;;;;;;;10.65;2.47;;;12.50;99.90;;;;;;5069715;28;20386;-69
2022/07/05 08:00:05;;;;;;;7.60;2.22;;;12.50;99.90;;;;;;5072609;28;20043;-72
2022/07/05 08:02:32;;;;;;;8.63;2.10;;;12.60;99.90;;;;;;5071386;28;20374;-70
2022/07/05 08:05:01;;;;;;;15.13;2.00;;;12.60;99.90;;;;;;5073659;28;20021;-71
2022/07/05 08:07:29;;;;;;;7.78;1.80;;;12.70;99.90;;;;;;5072422;28;20031;-72
2022/07/05 08:09:57;;;;;;;18.00;2.70;;;12.70;99.90;;;;;;5067494;28;20687;-71
2022/07/05 08:12:24;;;;;;;8.98;1.38;;;12.70;99.90;;;;;;5055549;28;20029;-72
2022/07/05 08:14:52;;;;;;;10.20;2.70;;;12.70;99.90;;;;;;5054067;28;20025;-72
2022/07/05 08:17:20;;;;;;;8.45;1.73;;;12.80;99.90;;;;;;5054492;28;20029;-72
2022/07/05 08:22:33;;;;;;;;;;;12.70;99.90;;;;;;5055429;28;20040;-73
2022/07/05 08:25:01;;;;;;;12.52;2.25;;;12.80;99.90;;;;;;5053911;28;19913;-72
2022/07/05 08:27:29;;;;;;;10.85;2.03;;;12.80;99.90;;;;;;5053769;28;20074;-72
2022/07/05 08:29:57;;;;;;;13.65;2.88;;;12.90;99.90;;;;;;5053827;28;20029;-70
2022/07/05 08:32:25;;;;;;;10.85;2.85;;;13.10;99.90;;;;;;5053912;28;20032;-73
2022/07/05 08:34:52;;;;;;;14.85;2.55;;;13.10;99.90;;;;;;5053808;28;20383;-71
2022/07/05 08:37:20;;;;;;;17.33;2.58;;;13.10;99.90;;;;;;5054047;28;20025;-74
2022/07/05 08:39:49;;;;;;;4.63;1.33;;;13.10;99.90;;;;;;5053775;28;20029;-73
2022/07/05 08:42:16;;;;;;;11.38;2.13;;;13.20;99.90;;;;;;5053905;28;20115;-72
2022/07/05 08:44:46;;;;;;;9.40;1.83;;;13.20;99.90;;;;;;5054037;28;20036;-70
2022/07/05 08:47:15;;;;;;;14.23;2.13;;;13.20;99.90;;;;;;5053892;28;20471;-72
2022/07/05 08:49:43;;;;;;;15.50;2.75;;;13.10;99.90;;;;;;5053566;28;20017;-73
2022/07/05 08:52:13;;;;;;;10.70;2.63;;;13.10;99.90;;;;;;5055825;28;20471;-72
2022/07/05 08:54:41;;;;;;;11.65;3.13;;;13.20;99.90;;;;;;5053723;28;20044;-70
2022/07/05 08:57:08;;;;;;;10.27;2.67;;;13.10;99.90;;;;;;5053437;28;20025;-71
2022/07/05 08:59:36;;;;;;;12.55;2.83;;;13.20;99.90;;;;;;5052837;28;20036;-71
2022/07/05 09:02:05;;;;;;;8.48;2.67;;;13.20;99.90;;;;;;5053556;28;20025;-71
2022/07/05 09:04:41;;;;;;;15.60;3.30;;;13.20;99.90;;;;;;5053513;28;20017;-70
2022/07/05 09:07:10;;;;;;;9.93;2.03;;;13.20;99.90;;;;;;5053831;28;20071;-73
2022/07/05 09:09:43;;;;;;;8.07;2.30;;;13.10;99.90;;;;;;5053281;28;20106;-72
2022/07/05 09:12:13;;;;;;;9.57;1.70;;;13.00;99.90;;;;;;5052921;28;20379;-70
2022/07/05 09:14:41;;;;;;;13.30;3.08;;;13.00;99.90;;;;;;5053054;28;20024;-73
2022/07/05 09:17:09;;;;;;;15.65;2.13;;;13.00;99.90;;;;;;5052833;28;20036;-71
2022/07/05 09:19:37;;;;;;;13.18;2.50;;;13.00;99.90;;;;;;5053423;28;20036;-71
2022/07/05 09:22:06;;;;;;;9.75;2.33;;;13.00;99.90;;;;;;5053210;28;20557;-71
2022/07/05 09:24:42;;;;;;;12.80;2.38;;;12.90;99.90;;;;;;5053470;28;20075;-70
2022/07/05 09:27:11;;;;;;;9.23;2.45;;;13.00;99.90;;;;;;5053256;28;20044;-70
2022/07/05 09:29:38;;;;;;;21.33;2.75;;;13.00;99.90;;;;;;5053346;28;20075;-71
2022/07/05 09:32:06;;;;;;;15.55;2.65;;;13.00;99.90;;;;;;5053304;28;20032;-69
2022/07/05 09:34:34;;;;;;;15.48;2.53;;;13.00;99.90;;;;;;5054793;28;20014;-70
2022/07/05 09:37:03;;;;;;;18.58;2.97;;;13.00;99.90;;;;;;5053404;28;20021;-70
2022/07/05 09:39:37;;;;;;;13.05;2.08;;;13.10;99.90;;;;;;5053341;28;20107;-70
2022/07/05 09:42:23;;;;;;;7.68;2.72;;;13.10;99.90;;;;;;5053303;28;20042;-70
2022/07/05 09:44:58;;;;;;;8.35;2.17;;;13.00;99.90;;;;;;5053235;28;20541;-70
2022/07/05 09:47:28;;;;;;;11.97;2.53;;;13.00;99.90;;;;;;5055919;28;20389;-70
2022/07/05 09:50:03;;;;;;;7.47;2.13;;;13.00;99.90;;;;;;5053173;28;20722;-69
2022/07/05 09:52:44;;;;;;;11.05;2.47;;;13.00;99.90;;;;;;5070057;28;20540;-72
2022/07/05 09:55:18;;;;;;;12.52;2.17;;;13.00;99.90;;;;;;5053215;28;20040;-73
2022/07/05 09:57:47;;;;;;;12.93;2.33;;;13.00;99.90;;;;;;5052845;28;20100;-73
2022/07/05 10:00:20;;;;;;;12.98;2.22;;;13.10;99.90;;;;;;5052811;28;20036;-72
2022/07/05 10:02:51;;;;;;;8.68;2.03;;;13.10;99.90;;;;;;5034762;28;20450;-70
2022/07/05 10:05:20;;;;;;;9.02;1.95;;;13.10;99.90;;;;;;5053491;28;20021;-70
2022/07/05 10:07:50;;;;;;;9.70;2.35;;;13.10;99.90;;;;;;5052485;28;20425;-70
2022/07/05 10:10:20;;;;;;;8.32;2.42;;;13.10;99.90;;;;;;5070964;28;20020;-71
2022/07/05 10:12:49;;;;;;;15.23;1.98;;;13.10;99.90;;;;;;5072459;28;20048;-72
2022/07/05 10:15:21;;;;;;;8.27;1.75;;;13.10;99.90;;;;;;5067962;28;20029;-71
2022/07/05 10:18:03;;;;;;;17.23;2.55;;;13.10;99.90;;;;;;5067389;28;20534;-71
2022/07/05 10:20:41;;;;;;;16.45;2.90;;;13.10;99.90;;;;;;5067763;28;20103;-70
2022/07/05 10:23:13;;;;;;;9.75;1.73;;;13.20;99.90;;;;;;5071517;28;20087;-68
2022/07/05 10:25:51;;;;;;;14.55;2.95;;;13.20;99.90;;;;;;5071258;28;20016;-71
2022/07/05 10:28:21;;;;;;;22.65;2.58;;;13.20;99.90;;;;;;5071955;28;20017;-69
2022/07/05 10:30:52;;;;;;;16.50;2.63;;;13.20;99.90;;;;;;5066977;28;20501;-70
2022/07/05 10:33:25;;;;;;;6.53;2.03;;;13.20;99.90;;;;;;5067728;28;20081;-71
2022/07/05 10:35:53;;;;;;;10.25;2.28;;;13.20;99.90;;;;;;5069425;28;20027;-72
2022/07/05 10:38:21;;;;;;;12.77;2.70;;;13.20;99.90;;;;;;5070173;28;20087;-69
2022/07/05 10:40:55;;;;;;;14.65;2.10;;;13.30;99.90;;;;;;5052825;28;20028;-70
2022/07/05 10:43:24;;;;;;;15.45;2.58;;;13.30;99.90;;;;;;5068724;28;20024;-71
2022/07/05 10:45:52;;;;;;;12.57;2.03;;;13.30;99.90;;;;;;5068813;28;20031;-72
2022/07/05 10:48:25;;;;;;;12.73;2.25;;;13.40;99.90;;;;;;5066778;28;20536;-70
2022/07/05 10:51:05;;;;;;;9.75;2.25;;;13.30;99.90;;;;;;5065731;28;20032;-71
2022/07/05 10:53:39;;;;;;;12.32;2.38;;;13.40;99.90;;;;;;5059539;28;20090;-70
2022/07/05 10:56:06;;;;;;;13.82;2.25;;;13.40;99.90;;;;;;5052032;28;20036;-69
2022/07/05 10:58:40;;;;;;;10.30;2.67;;;13.40;99.90;;;;;;5051899;28;20094;-69
2022/07/05 11:01:20;;;;;;;16.77;2.30;;;13.40;99.90;;;;;;5052013;28;20045;-69
2022/07/05 11:04:00;;;;;;;10.30;2.17;;;13.40;99.90;;;;;;5052303;28;20021;-70
2022/07/05 11:06:38;;;;;;;11.77;1.67;;;13.40;99.90;;;;;;5052235;28;20364;-68
2022/07/05 11:09:13;;;;;;;8.23;2.30;;;13.40;99.90;;;;;;5051847;28;20017;-70
2022/07/05 11:11:51;;;;;;;10.18;2.20;;;13.50;99.90;;;;;;5052075;28;20036;-72
2022/07/05 11:14:22;;;;;;;11.48;2.38;;;13.50;99.90;;;;;;5052099;28;20021;-72
2022/07/05 11:17:08;;;;;;;18.02;2.95;;;13.50;99.90;;;;;;5051785;28;20025;-74
2022/07/05 11:19:55;;;;;;;9.15;2.45;;;13.50;99.90;;;;;;5053655;28;20060;-74
2022/07/05 11:22:23;;;;;;;9.50;1.92;;;13.50;99.90;;;;;;5051802;28;20017;-75
2022/07/05 11:24:51;;;;;;;16.80;3.45;;;13.50;99.90;;;;;;5051907;28;20025;-72
2022/07/05 11:27:19;;;;;;;15.02;2.33;;;13.40;99.90;;;;;;5051133;28;20040;-68
2022/07/05 11:29:51;;;;;;;13.35;2.55;;;13.40;99.90;;;;;;5051462;28;20029;-70
2022/07/05 11:32:29;;;;;;;9.25;3.13;;;13.40;99.90;;;;;;5052370;28;20032;-71
2022/07/05 11:35:15;;;;;;;15.00;2.80;;;13.40;99.90;;;;;;5055640;28;20047;-71
2022/07/05 11:38:09;;;;;;;19.98;2.70;;;13.40;99.90;;;;;;5055802;28;20027;-69
2022/07/05 11:40:40;;;;;;;11.35;3.17;;;13.40;99.90;;;;;;5055060;28;20024;-69
2022/07/05 11:43:09;;;;;;;12.05;2.88;;;13.40;99.90;;;;;;5055310;28;20163;-70
2022/07/05 11:45:38;;;;;;;11.88;2.45;;;13.40;99.90;;;;;;5038012;28;20033;-71
2022/07/05 11:48:06;;;;;;;12.93;2.70;;;13.30;99.90;;;;;;5055191;28;20024;-73
2022/07/05 11:50:35;;;;;;;17.05;2.67;;;13.30;99.90;;;;;;5054731;28;20482;-71
2022/07/05 11:53:03;;;;;;;11.23;2.83;;;13.20;99.90;;;;;;5055359;28;20464;-70
2022/07/05 11:55:31;;;;;;;14.30;2.67;;;13.20;99.90;;;;;;5055233;28;20102;-71
2022/07/05 11:57:59;;;;;;;14.13;2.75;;;13.20;99.90;;;;;;5055121;28;20013;-71
2022/07/05 12:00:31;;;;;;;11.30;2.47;;;13.20;99.90;;;;;;5054886;28;20483;-69
2022/07/05 12:02:59;;;;;;;11.23;2.75;;;13.20;99.90;;;;;;5055316;28;20497;-69
2022/07/05 12:05:33;;;;;;;12.60;2.15;;;13.10;99.90;;;;;;5057293;28;20025;-70
2022/07/05 12:08:01;;;;;;;13.38;3.00;;;13.10;99.90;;;;;;5055180;28;20465;-70
2022/07/05 12:13:13;;;;;;;11.97;2.20;;;13.10;99.90;;;;;;5054356;28;20490;-74
2022/07/05 12:15:41;;;;;;;16.13;1.98;;;13.10;99.90;;;;;;5054402;28;20395;-73
2022/07/05 12:18:11;;;;;;;21.30;2.47;;;13.20;99.90;;;;;;5054318;28;20032;-74
2022/07/05 12:20:40;;;;;;;13.82;2.30;;;13.20;99.90;;;;;;5054184;28;20108;-73
2022/07/05 12:23:08;;;;;;;11.02;2.97;;;13.20;99.90;;;;;;5056819;28;20471;-72
2022/07/05 12:25:36;;;;;;;11.45;1.60;;;13.20;99.90;;;;;;5054265;28;20122;-71
2022/07/05 12:28:06;;;;;;;18.15;1.98;;;13.20;99.90;;;;;;5053630;28;20096;-73
2022/07/05 12:30:34;;;;;;;11.10;2.47;;;13.10;99.90;;;;;;5053289;28;20029;-69
2022/07/05 12:33:07;;;;;;;17.05;3.22;;;13.20;99.90;;;;;;5053892;28;20017;-69
2022/07/05 12:35:45;;;;;;;7.68;2.03;;;13.20;99.90;;;;;;5054048;28;20478;-70
2022/07/05 12:38:18;;;;;;;9.15;2.65;;;13.20;99.90;;;;;;5054500;28;20474;-73
2022/07/05 12:40:57;;;;;;;11.88;1.85;;;13.20;99.90;;;;;;5053928;28;20376;-74
2022/07/05 12:43:25;;;;;;;13.25;2.53;;;13.10;99.90;;;;;;5054099;28;20056;-69
2022/07/05 12:46:07;;;;;;;15.45;2.10;;;13.10;99.90;;;;;;5055857;28;21094;-71
2022/07/05 12:48:45;;;;;;;6.30;1.77;;;13.10;99.90;;;;;;5063522;28;20028;-71
2022/07/05 12:51:12;;;;;;;10.38;2.28;;;13.00;99.90;;;;;;5071559;28;20446;-70
2022/07/05 12:59:36;;;;;;;15.07;3.25;;;12.80;99.90;;;;;;5068975;28;20039;-68
2022/07/05 13:02:05;;;;;;;8.48;1.92;;;12.90;99.90;;;;;;5071360;28;20033;-70
2022/07/05 13:04:32;;;;;;;8.77;2.83;;;12.90;99.90;;;;;;5069496;28;20471;-73
2022/07/05 13:07:04;;;;;;;14.40;1.90;;;12.80;99.90;;;;;;5072334;28;20489;-72